sensor_id;sensor_type;location;lat;lon;timestamp;P1;durP1;ratioP1;P2;durP2;ratioP2
3207;SDS011;1616;52.394;9.756;2023-02-15T00:01:10;32.50;;;17.73;;
3207;SDS011;1616;52.394;9.756;2023-02-15T00:03:37;26.23;;;16.67;;
3207;SDS011;1616;52.394;9.756;2023-02-15T00:06:03;33.23;;;17.87;;
3207;SDS011;1616;52.394;9.756;2023-02-15T00:08:29;30.30;;;16.00;;
3207;SDS011;1616;52.394;9.756;2023-02-15T00:11:05;24.07;;;15.80;;
3207;SDS011;1616;52.394;9.756;2023-02-15T00:13:35;27.13;;;16.20;;
3207;SDS011;1616;52.394;9.756;2023-02-15T00:16:05;28.53;;;16.90;;
3207;SDS011;1616;52.394;9.756;2023-02-15T00:18:32;24.77;;;15.30;;
3207;SDS011;1616;52.394;9.756;2023-02-15T00:20:58;26.40;;;16.23;;
3207;SDS011;1616;52.394;9.756;2023-02-15T00:23:28;24.37;;;15.40;;
3207;SDS011;1616;52.394;9.756;2023-02-15T00:26:02;28.00;;;13.77;;
3207;SDS011;1616;52.394;9.756;2023-02-15T00:28:32;26.93;;;15.27;;
3207;SDS011;1616;52.394;9.756;2023-02-15T00:31:08;22.07;;;13.60;;
3207;SDS011;1616;52.394;9.756;2023-02-15T00:33:34;26.97;;;14.20;;
3207;SDS011;1616;52.394;9.756;2023-02-15T00:36:02;21.17;;;12.87;;
3207;SDS011;1616;52.394;9.756;2023-02-15T00:38:28;26.33;;;15.27;;
3207;SDS011;1616;52.394;9.756;2023-02-15T00:40:59;22.27;;;13.77;;
3207;SDS011;1616;52.394;9.756;2023-02-15T00:43:27;23.30;;;13.77;;
3207;SDS011;1616;52.394;9.756;2023-02-15T00:45:53;24.87;;;14.47;;
3207;SDS011;1616;52.394;9.756;2023-02-15T00:48:19;20.67;;;12.90;;
3207;SDS011;1616;52.394;9.756;2023-02-15T00:50:49;17.73;;;12.37;;
3207;SDS011;1616;52.394;9.756;2023-02-15T00:53:19;21.90;;;13.60;;
3207;SDS011;1616;52.394;9.756;2023-02-15T00:55:45;19.40;;;12.20;;
3207;SDS011;1616;52.394;9.756;2023-02-15T00:58:11;21.07;;;12.07;;
3207;SDS011;1616;52.394;9.756;2023-02-15T01:00:38;17.97;;;11.97;;
3207;SDS011;1616;52.394;9.756;2023-02-15T01:03:05;19.73;;;12.37;;
3207;SDS011;1616;52.394;9.756;2023-02-15T01:05:30;17.40;;;11.97;;
3207;SDS011;1616;52.394;9.756;2023-02-15T01:07:57;18.60;;;12.53;;
3207;SDS011;1616;52.394;9.756;2023-02-15T01:10:24;23.17;;;13.50;;
3207;SDS011;1616;52.394;9.756;2023-02-15T01:12:51;18.50;;;12.57;;
3207;SDS011;1616;52.394;9.756;2023-02-15T01:15:17;18.77;;;12.57;;
3207;SDS011;1616;52.394;9.756;2023-02-15T01:17:43;21.20;;;14.33;;
3207;SDS011;1616;52.394;9.756;2023-02-15T01:20:14;20.70;;;13.40;;
3207;SDS011;1616;52.394;9.756;2023-02-15T01:22:40;19.17;;;12.67;;
3207;SDS011;1616;52.394;9.756;2023-02-15T01:25:06;24.53;;;13.30;;
3207;SDS011;1616;52.394;9.756;2023-02-15T01:27:32;20.63;;;13.20;;
3207;SDS011;1616;52.394;9.756;2023-02-15T01:29:57;18.77;;;12.30;;
3207;SDS011;1616;52.394;9.756;2023-02-15T01:32:23;18.17;;;12.07;;
3207;SDS011;1616;52.394;9.756;2023-02-15T01:34:49;19.57;;;12.37;;
3207;SDS011;1616;52.394;9.756;2023-02-15T01:37:14;25.13;;;13.70;;
3207;SDS011;1616;52.394;9.756;2023-02-15T01:39:40;16.90;;;11.60;;
3207;SDS011;1616;52.394;9.756;2023-02-15T01:42:07;18.50;;;12.87;;
3207;SDS011;1616;52.394;9.756;2023-02-15T01:44:49;26.30;;;13.50;;
3207;SDS011;1616;52.394;9.756;2023-02-15T01:47:23;19.37;;;12.30;;
3207;SDS011;1616;52.394;9.756;2023-02-15T01:52:30;21.90;;;12.23;;
3207;SDS011;1616;52.394;9.756;2023-02-15T01:54:56;18.63;;;13.17;;
3207;SDS011;1616;52.394;9.756;2023-02-15T01:57:23;18.37;;;11.57;;
3207;SDS011;1616;52.394;9.756;2023-02-15T01:59:53;20.43;;;11.83;;
3207;SDS011;1616;52.394;9.756;2023-02-15T02:02:23;21.23;;;12.67;;
3207;SDS011;1616;52.394;9.756;2023-02-15T02:04:50;22.73;;;13.20;;
3207;SDS011;1616;52.394;9.756;2023-02-15T02:07:19;17.90;;;12.27;;
3207;SDS011;1616;52.394;9.756;2023-02-15T02:09:47;19.43;;;13.00;;
3207;SDS011;1616;52.394;9.756;2023-02-15T02:12:13;23.77;;;12.70;;
3207;SDS011;1616;52.394;9.756;2023-02-15T02:14:43;18.67;;;13.20;;
3207;SDS011;1616;52.394;9.756;2023-02-15T02:39:21;19.27;;;11.90;;
3207;SDS011;1616;52.394;9.756;2023-02-15T02:42:21;28.73;;;14.17;;
3207;SDS011;1616;52.394;9.756;2023-02-15T02:44:54;24.90;;;13.40;;
3207;SDS011;1616;52.394;9.756;2023-02-15T02:47:29;22.47;;;13.80;;
3207;SDS011;1616;52.394;9.756;2023-02-15T02:50:11;22.10;;;14.77;;
3207;SDS011;1616;52.394;9.756;2023-02-15T02:55:30;23.40;;;14.47;;
3207;SDS011;1616;52.394;9.756;2023-02-15T02:58:10;22.67;;;14.33;;
3207;SDS011;1616;52.394;9.756;2023-02-15T03:01:02;25.13;;;14.47;;
3207;SDS011;1616;52.394;9.756;2023-02-15T03:04:00;29.50;;;13.97;;
3207;SDS011;1616;52.394;9.756;2023-02-15T03:06:26;26.17;;;13.67;;
3207;SDS011;1616;52.394;9.756;2023-02-15T03:09:03;19.43;;;13.00;;
3207;SDS011;1616;52.394;9.756;2023-02-15T03:11:44;22.17;;;14.40;;
3207;SDS011;1616;52.394;9.756;2023-02-15T03:14:11;25.70;;;13.47;;
3207;SDS011;1616;52.394;9.756;2023-02-15T03:16:39;28.50;;;13.40;;
3207;SDS011;1616;52.394;9.756;2023-02-15T03:19:10;29.53;;;14.07;;
3207;SDS011;1616;52.394;9.756;2023-02-15T03:24:31;24.30;;;15.50;;
3207;SDS011;1616;52.394;9.756;2023-02-15T03:27:00;25.97;;;16.30;;
3207;SDS011;1616;52.394;9.756;2023-02-15T03:29:30;30.70;;;15.83;;
3207;SDS011;1616;52.394;9.756;2023-02-15T03:31:59;23.40;;;14.13;;
3207;SDS011;1616;52.394;9.756;2023-02-15T03:34:27;26.90;;;14.80;;
3207;SDS011;1616;52.394;9.756;2023-02-15T03:36:58;31.00;;;13.40;;
3207;SDS011;1616;52.394;9.756;2023-02-15T03:45:42;30.40;;;16.13;;
3207;SDS011;1616;52.394;9.756;2023-02-15T03:48:21;28.33;;;15.60;;
3207;SDS011;1616;52.394;9.756;2023-02-15T03:50:58;34.13;;;15.53;;
3207;SDS011;1616;52.394;9.756;2023-02-15T03:53:48;23.30;;;15.10;;
3207;SDS011;1616;52.394;9.756;2023-02-15T03:56:15;31.93;;;14.70;;
3207;SDS011;1616;52.394;9.756;2023-02-15T03:58:42;27.80;;;14.23;;
3207;SDS011;1616;52.394;9.756;2023-02-15T04:01:27;21.67;;;13.67;;
3207;SDS011;1616;52.394;9.756;2023-02-15T04:04:16;22.87;;;14.00;;
3207;SDS011;1616;52.394;9.756;2023-02-15T04:06:45;22.90;;;14.70;;
3207;SDS011;1616;52.394;9.756;2023-02-15T04:09:11;24.30;;;13.40;;
3207;SDS011;1616;52.394;9.756;2023-02-15T04:11:56;20.73;;;13.40;;
3207;SDS011;1616;52.394;9.756;2023-02-15T04:14:21;25.70;;;14.97;;
3207;SDS011;1616;52.394;9.756;2023-02-15T04:17:06;28.90;;;14.80;;
3207;SDS011;1616;52.394;9.756;2023-02-15T04:19:33;23.33;;;13.83;;
3207;SDS011;1616;52.394;9.756;2023-02-15T04:22:17;22.10;;;12.90;;
3207;SDS011;1616;52.394;9.756;2023-02-15T04:25:02;21.87;;;13.50;;
3207;SDS011;1616;52.394;9.756;2023-02-15T04:27:37;28.33;;;15.67;;
3207;SDS011;1616;52.394;9.756;2023-02-15T04:30:08;23.03;;;14.50;;
3207;SDS011;1616;52.394;9.756;2023-02-15T04:32:35;28.00;;;14.40;;
3207;SDS011;1616;52.394;9.756;2023-02-15T04:35:02;28.13;;;14.47;;
3207;SDS011;1616;52.394;9.756;2023-02-15T04:37:28;28.77;;;14.43;;
3207;SDS011;1616;52.394;9.756;2023-02-15T04:39:54;24.00;;;14.53;;
3207;SDS011;1616;52.394;9.756;2023-02-15T04:42:20;26.20;;;14.20;;
3207;SDS011;1616;52.394;9.756;2023-02-15T04:44:46;27.33;;;14.63;;
3207;SDS011;1616;52.394;9.756;2023-02-15T04:47:12;23.80;;;15.23;;
3207;SDS011;1616;52.394;9.756;2023-02-15T04:49:37;26.83;;;15.43;;
3207;SDS011;1616;52.394;9.756;2023-02-15T04:52:03;23.00;;;13.50;;
3207;SDS011;1616;52.394;9.756;2023-02-15T04:54:28;32.27;;;14.83;;
3207;SDS011;1616;52.394;9.756;2023-02-15T04:56:54;25.70;;;15.37;;
3207;SDS011;1616;52.394;9.756;2023-02-15T04:59:20;24.60;;;14.20;;
3207;SDS011;1616;52.394;9.756;2023-02-15T05:01:45;22.57;;;13.23;;
3207;SDS011;1616;52.394;9.756;2023-02-15T05:04:11;26.27;;;14.50;;
3207;SDS011;1616;52.394;9.756;2023-02-15T05:06:36;28.10;;;16.27;;
3207;SDS011;1616;52.394;9.756;2023-02-15T05:09:02;22.63;;;14.40;;
3207;SDS011;1616;52.394;9.756;2023-02-15T05:11:28;32.50;;;16.40;;
3207;SDS011;1616;52.394;9.756;2023-02-15T05:13:53;31.57;;;17.17;;
3207;SDS011;1616;52.394;9.756;2023-02-15T05:16:19;25.60;;;14.57;;
3207;SDS011;1616;52.394;9.756;2023-02-15T05:18:45;36.80;;;16.90;;
3207;SDS011;1616;52.394;9.756;2023-02-15T05:21:10;28.37;;;15.13;;
3207;SDS011;1616;52.394;9.756;2023-02-15T05:23:36;25.20;;;16.57;;
3207;SDS011;1616;52.394;9.756;2023-02-15T05:26:02;36.50;;;17.47;;
3207;SDS011;1616;52.394;9.756;2023-02-15T05:28:46;31.50;;;15.77;;
3207;SDS011;1616;52.394;9.756;2023-02-15T05:31:16;33.57;;;16.70;;
3207;SDS011;1616;52.394;9.756;2023-02-15T05:33:43;32.80;;;17.40;;
3207;SDS011;1616;52.394;9.756;2023-02-15T05:36:09;36.07;;;16.20;;
3207;SDS011;1616;52.394;9.756;2023-02-15T05:38:35;34.07;;;18.20;;
3207;SDS011;1616;52.394;9.756;2023-02-15T05:41:03;30.90;;;15.80;;
3207;SDS011;1616;52.394;9.756;2023-02-15T05:43:30;37.03;;;17.83;;
3207;SDS011;1616;52.394;9.756;2023-02-15T05:45:56;36.50;;;17.93;;
3207;SDS011;1616;52.394;9.756;2023-02-15T05:48:22;33.60;;;15.63;;
3207;SDS011;1616;52.394;9.756;2023-02-15T05:53:26;34.23;;;17.63;;
3207;SDS011;1616;52.394;9.756;2023-02-15T05:55:53;34.87;;;16.53;;
3207;SDS011;1616;52.394;9.756;2023-02-15T05:58:24;31.87;;;18.20;;
3207;SDS011;1616;52.394;9.756;2023-02-15T06:00:50;30.93;;;16.13;;
3207;SDS011;1616;52.394;9.756;2023-02-15T06:03:16;35.87;;;17.83;;
3207;SDS011;1616;52.394;9.756;2023-02-15T06:05:41;28.47;;;16.83;;
3207;SDS011;1616;52.394;9.756;2023-02-15T06:08:07;35.53;;;17.63;;
3207;SDS011;1616;52.394;9.756;2023-02-15T06:10:32;32.93;;;17.00;;
3207;SDS011;1616;52.394;9.756;2023-02-15T06:12:58;33.07;;;18.77;;
3207;SDS011;1616;52.394;9.756;2023-02-15T06:15:23;36.57;;;17.60;;
3207;SDS011;1616;52.394;9.756;2023-02-15T06:17:49;33.53;;;16.73;;
3207;SDS011;1616;52.394;9.756;2023-02-15T06:20:15;34.60;;;16.70;;
3207;SDS011;1616;52.394;9.756;2023-02-15T06:22:41;30.27;;;16.83;;
3207;SDS011;1616;52.394;9.756;2023-02-15T06:25:06;34.87;;;17.63;;
3207;SDS011;1616;52.394;9.756;2023-02-15T06:27:34;41.83;;;19.10;;
3207;SDS011;1616;52.394;9.756;2023-02-15T06:30:01;31.33;;;16.23;;
3207;SDS011;1616;52.394;9.756;2023-02-15T06:32:28;33.77;;;16.33;;
3207;SDS011;1616;52.394;9.756;2023-02-15T06:34:53;35.30;;;17.67;;
3207;SDS011;1616;52.394;9.756;2023-02-15T06:37:19;33.90;;;17.70;;
3207;SDS011;1616;52.394;9.756;2023-02-15T06:39:44;36.17;;;19.33;;
3207;SDS011;1616;52.394;9.756;2023-02-15T06:42:10;35.47;;;18.27;;
3207;SDS011;1616;52.394;9.756;2023-02-15T06:44:35;37.07;;;18.70;;
3207;SDS011;1616;52.394;9.756;2023-02-15T06:47:01;38.20;;;16.67;;
3207;SDS011;1616;52.394;9.756;2023-02-15T06:49:26;29.93;;;17.07;;
3207;SDS011;1616;52.394;9.756;2023-02-15T06:51:52;26.63;;;15.63;;
3207;SDS011;1616;52.394;9.756;2023-02-15T06:54:18;40.93;;;18.47;;
3207;SDS011;1616;52.394;9.756;2023-02-15T06:56:43;35.37;;;17.80;;
3207;SDS011;1616;52.394;9.756;2023-02-15T06:59:09;38.13;;;17.10;;
3207;SDS011;1616;52.394;9.756;2023-02-15T07:01:34;31.93;;;17.03;;
3207;SDS011;1616;52.394;9.756;2023-02-15T07:04:02;36.53;;;18.70;;
3207;SDS011;1616;52.394;9.756;2023-02-15T07:06:30;30.33;;;17.10;;
3207;SDS011;1616;52.394;9.756;2023-02-15T07:08:59;31.43;;;16.70;;
3207;SDS011;1616;52.394;9.756;2023-02-15T07:11:25;31.37;;;15.30;;
3207;SDS011;1616;52.394;9.756;2023-02-15T07:14:09;23.70;;;14.37;;
3207;SDS011;1616;52.394;9.756;2023-02-15T07:16:35;29.40;;;17.50;;
3207;SDS011;1616;52.394;9.756;2023-02-15T07:19:01;23.40;;;14.70;;
3207;SDS011;1616;52.394;9.756;2023-02-15T07:21:26;22.63;;;14.47;;
3207;SDS011;1616;52.394;9.756;2023-02-15T07:23:55;23.60;;;15.60;;
3207;SDS011;1616;52.394;9.756;2023-02-15T07:26:21;21.30;;;13.97;;
3207;SDS011;1616;52.394;9.756;2023-02-15T07:28:47;21.70;;;15.00;;
3207;SDS011;1616;52.394;9.756;2023-02-15T07:31:13;17.57;;;13.40;;
3207;SDS011;1616;52.394;9.756;2023-02-15T07:33:39;17.27;;;13.50;;
3207;SDS011;1616;52.394;9.756;2023-02-15T07:36:04;16.60;;;13.47;;
3207;SDS011;1616;52.394;9.756;2023-02-15T07:38:34;15.30;;;12.60;;
3207;SDS011;1616;52.394;9.756;2023-02-15T07:41:02;24.77;;;13.93;;
3207;SDS011;1616;52.394;9.756;2023-02-15T07:43:33;15.03;;;13.00;;
3207;SDS011;1616;52.394;9.756;2023-02-15T07:46:01;18.80;;;14.73;;
3207;SDS011;1616;52.394;9.756;2023-02-15T07:48:28;15.13;;;13.53;;
3207;SDS011;1616;52.394;9.756;2023-02-15T07:50:53;17.37;;;12.43;;
3207;SDS011;1616;52.394;9.756;2023-02-15T07:53:19;15.37;;;13.27;;
3207;SDS011;1616;52.394;9.756;2023-02-15T07:55:45;15.23;;;13.10;;
3207;SDS011;1616;52.394;9.756;2023-02-15T07:58:11;15.83;;;13.70;;
3207;SDS011;1616;52.394;9.756;2023-02-15T08:00:36;15.20;;;13.60;;
3207;SDS011;1616;52.394;9.756;2023-02-15T08:03:24;15.13;;;13.60;;
3207;SDS011;1616;52.394;9.756;2023-02-15T08:05:57;14.17;;;12.77;;
3207;SDS011;1616;52.394;9.756;2023-02-15T08:08:24;15.83;;;14.13;;
3207;SDS011;1616;52.394;9.756;2023-02-15T08:11:01;15.20;;;13.60;;
3207;SDS011;1616;52.394;9.756;2023-02-15T08:13:46;15.17;;;13.50;;
3207;SDS011;1616;52.394;9.756;2023-02-15T08:16:22;18.30;;;14.87;;
3207;SDS011;1616;52.394;9.756;2023-02-15T08:18:53;15.47;;;13.87;;
3207;SDS011;1616;52.394;9.756;2023-02-15T08:21:19;13.60;;;12.23;;
3207;SDS011;1616;52.394;9.756;2023-02-15T08:23:46;14.63;;;13.43;;
3207;SDS011;1616;52.394;9.756;2023-02-15T08:26:12;13.90;;;12.63;;
3207;SDS011;1616;52.394;9.756;2023-02-15T08:28:38;15.80;;;14.30;;
3207;SDS011;1616;52.394;9.756;2023-02-15T08:31:05;14.37;;;12.73;;
3207;SDS011;1616;52.394;9.756;2023-02-15T08:33:35;14.17;;;12.77;;
3207;SDS011;1616;52.394;9.756;2023-02-15T08:36:05;12.33;;;11.23;;
3207;SDS011;1616;52.394;9.756;2023-02-15T08:38:32;13.43;;;12.13;;
3207;SDS011;1616;52.394;9.756;2023-02-15T08:41:08;15.20;;;13.80;;
3207;SDS011;1616;52.394;9.756;2023-02-15T08:43:46;14.10;;;12.80;;
3207;SDS011;1616;52.394;9.756;2023-02-15T08:46:13;15.00;;;12.43;;
3207;SDS011;1616;52.394;9.756;2023-02-15T08:48:40;14.27;;;12.77;;
3207;SDS011;1616;52.394;9.756;2023-02-15T08:51:10;15.43;;;13.67;;
3207;SDS011;1616;52.394;9.756;2023-02-15T08:53:38;13.73;;;12.33;;
3207;SDS011;1616;52.394;9.756;2023-02-15T08:56:05;15.70;;;13.77;;
3207;SDS011;1616;52.394;9.756;2023-02-15T08:58:31;14.80;;;13.47;;
3207;SDS011;1616;52.394;9.756;2023-02-15T09:00:58;14.60;;;13.40;;
3207;SDS011;1616;52.394;9.756;2023-02-15T09:03:24;15.40;;;13.90;;
3207;SDS011;1616;52.394;9.756;2023-02-15T09:05:49;13.87;;;12.60;;
3207;SDS011;1616;52.394;9.756;2023-02-15T09:08:15;13.73;;;12.63;;
3207;SDS011;1616;52.394;9.756;2023-02-15T09:10:41;13.30;;;12.10;;
3207;SDS011;1616;52.394;9.756;2023-02-15T09:13:07;14.00;;;12.70;;
3207;SDS011;1616;52.394;9.756;2023-02-15T09:15:32;13.70;;;12.60;;
3207;SDS011;1616;52.394;9.756;2023-02-15T09:17:58;14.40;;;13.20;;
3207;SDS011;1616;52.394;9.756;2023-02-15T09:20:27;13.43;;;12.33;;
3207;SDS011;1616;52.394;9.756;2023-02-15T09:22:53;12.40;;;11.50;;
3207;SDS011;1616;52.394;9.756;2023-02-15T09:25:19;15.13;;;13.83;;
3207;SDS011;1616;52.394;9.756;2023-02-15T09:27:45;13.63;;;12.50;;
3207;SDS011;1616;52.394;9.756;2023-02-15T09:30:11;13.33;;;12.27;;
3207;SDS011;1616;52.394;9.756;2023-02-15T09:32:37;12.83;;;11.67;;
3207;SDS011;1616;52.394;9.756;2023-02-15T09:35:03;12.40;;;11.60;;
3207;SDS011;1616;52.394;9.756;2023-02-15T09:37:32;13.77;;;12.77;;
3207;SDS011;1616;52.394;9.756;2023-02-15T09:39:58;11.67;;;10.80;;
3207;SDS011;1616;52.394;9.756;2023-02-15T09:44:57;12.50;;;11.50;;
3207;SDS011;1616;52.394;9.756;2023-02-15T10:12:36;12.57;;;11.57;;
3207;SDS011;1616;52.394;9.756;2023-02-15T10:18:42;11.97;;;11.00;;
3207;SDS011;1616;52.394;9.756;2023-02-15T10:21:23;12.37;;;11.40;;
3207;SDS011;1616;52.394;9.756;2023-02-15T10:26:50;15.30;;;11.60;;
3207;SDS011;1616;52.394;9.756;2023-02-15T10:34:51;12.07;;;11.30;;
3207;SDS011;1616;52.394;9.756;2023-02-15T10:40:37;12.23;;;11.33;;
3207;SDS011;1616;52.394;9.756;2023-02-15T10:43:31;13.00;;;12.00;;
3207;SDS011;1616;52.394;9.756;2023-02-15T10:46:24;12.47;;;11.50;;
3207;SDS011;1616;52.394;9.756;2023-02-15T10:49:26;12.90;;;11.67;;
3207;SDS011;1616;52.394;9.756;2023-02-15T10:54:48;12.27;;;11.37;;
3207;SDS011;1616;52.394;9.756;2023-02-15T10:57:45;12.17;;;11.30;;
3207;SDS011;1616;52.394;9.756;2023-02-15T11:08:28;11.93;;;11.07;;
3207;SDS011;1616;52.394;9.756;2023-02-15T11:11:05;12.70;;;11.70;;
3207;SDS011;1616;52.394;9.756;2023-02-15T11:13:42;12.50;;;11.50;;
3207;SDS011;1616;52.394;9.756;2023-02-15T11:18:45;11.63;;;10.73;;
3207;SDS011;1616;52.394;9.756;2023-02-15T11:21:31;12.33;;;11.13;;
3207;SDS011;1616;52.394;9.756;2023-02-15T11:24:13;11.93;;;11.10;;
3207;SDS011;1616;52.394;9.756;2023-02-15T11:29:36;12.53;;;11.63;;
3207;SDS011;1616;52.394;9.756;2023-02-15T11:32:45;11.87;;;10.93;;
3207;SDS011;1616;52.394;9.756;2023-02-15T11:40:33;10.60;;;9.90;;
3207;SDS011;1616;52.394;9.756;2023-02-15T11:43:24;12.10;;;11.10;;
3207;SDS011;1616;52.394;9.756;2023-02-15T11:45:56;12.60;;;11.40;;
3207;SDS011;1616;52.394;9.756;2023-02-15T11:48:22;11.83;;;10.63;;
3207;SDS011;1616;52.394;9.756;2023-02-15T11:50:48;13.13;;;11.87;;
3207;SDS011;1616;52.394;9.756;2023-02-15T11:53:18;11.47;;;10.57;;
3207;SDS011;1616;52.394;9.756;2023-02-15T11:55:51;12.10;;;10.90;;
3207;SDS011;1616;52.394;9.756;2023-02-15T12:01:30;10.87;;;10.27;;
3207;SDS011;1616;52.394;9.756;2023-02-15T12:03:59;12.07;;;11.17;;
3207;SDS011;1616;52.394;9.756;2023-02-15T12:06:34;12.23;;;11.23;;
3207;SDS011;1616;52.394;9.756;2023-02-15T12:09:09;12.93;;;11.57;;
3207;SDS011;1616;52.394;9.756;2023-02-15T12:12:19;12.97;;;11.77;;
3207;SDS011;1616;52.394;9.756;2023-02-15T12:14:49;12.77;;;11.80;;
3207;SDS011;1616;52.394;9.756;2023-02-15T12:17:17;11.87;;;10.90;;
3207;SDS011;1616;52.394;9.756;2023-02-15T12:19:46;11.87;;;10.97;;
3207;SDS011;1616;52.394;9.756;2023-02-15T12:22:26;12.60;;;11.50;;
3207;SDS011;1616;52.394;9.756;2023-02-15T12:24:55;11.63;;;10.93;;
3207;SDS011;1616;52.394;9.756;2023-02-15T12:27:25;13.23;;;11.90;;
3207;SDS011;1616;52.394;9.756;2023-02-15T12:29:55;12.80;;;11.90;;
3207;SDS011;1616;52.394;9.756;2023-02-15T12:32:28;13.10;;;11.90;;
3207;SDS011;1616;52.394;9.756;2023-02-15T12:37:35;13.10;;;12.10;;
3207;SDS011;1616;52.394;9.756;2023-02-15T12:40:02;12.57;;;11.30;;
3207;SDS011;1616;52.394;9.756;2023-02-15T12:42:45;12.83;;;11.83;;
3207;SDS011;1616;52.394;9.756;2023-02-15T12:45:27;13.30;;;11.80;;
3207;SDS011;1616;52.394;9.756;2023-02-15T12:50:50;13.00;;;11.90;;
3207;SDS011;1616;52.394;9.756;2023-02-15T12:53:22;13.10;;;11.90;;
3207;SDS011;1616;52.394;9.756;2023-02-15T12:55:56;14.70;;;11.13;;
3207;SDS011;1616;52.394;9.756;2023-02-15T12:58:30;13.47;;;12.27;;
3207;SDS011;1616;52.394;9.756;2023-02-15T13:06:47;14.33;;;12.93;;
3207;SDS011;1616;52.394;9.756;2023-02-15T13:09:15;14.13;;;12.73;;
3207;SDS011;1616;52.394;9.756;2023-02-15T13:11:46;13.47;;;12.17;;
3207;SDS011;1616;52.394;9.756;2023-02-15T13:16:58;14.70;;;12.40;;
3207;SDS011;1616;52.394;9.756;2023-02-15T13:22:02;14.27;;;12.77;;
3207;SDS011;1616;52.394;9.756;2023-02-15T13:24:36;13.33;;;11.37;;
3207;SDS011;1616;52.394;9.756;2023-02-15T13:27:07;17.77;;;12.47;;
3207;SDS011;1616;52.394;9.756;2023-02-15T13:29:37;14.33;;;12.27;;
3207;SDS011;1616;52.394;9.756;2023-02-15T13:32:06;16.10;;;12.70;;
3207;SDS011;1616;52.394;9.756;2023-02-15T13:34:40;14.20;;;11.80;;
3207;SDS011;1616;52.394;9.756;2023-02-15T13:39:45;16.20;;;12.63;;
3207;SDS011;1616;52.394;9.756;2023-02-15T13:53:56;16.77;;;13.53;;
3207;SDS011;1616;52.394;9.756;2023-02-15T14:12:21;25.50;;;14.07;;
3207;SDS011;1616;52.394;9.756;2023-02-15T14:15:07;18.50;;;13.80;;
3207;SDS011;1616;52.394;9.756;2023-02-15T14:26:20;19.90;;;14.70;;
3207;SDS011;1616;52.394;9.756;2023-02-15T14:29:13;29.03;;;14.00;;
3207;SDS011;1616;52.394;9.756;2023-02-15T14:31:49;20.40;;;13.30;;
3207;SDS011;1616;52.394;9.756;2023-02-15T14:34:22;17.90;;;13.27;;
3207;SDS011;1616;52.394;9.756;2023-02-15T14:36:52;17.40;;;13.87;;
3207;SDS011;1616;52.394;9.756;2023-02-15T14:45:19;18.60;;;14.00;;
3207;SDS011;1616;52.394;9.756;2023-02-15T14:48:00;16.33;;;13.17;;
3207;SDS011;1616;52.394;9.756;2023-02-15T14:58:35;17.90;;;12.83;;
3207;SDS011;1616;52.394;9.756;2023-02-15T15:01:26;15.40;;;13.20;;
3207;SDS011;1616;52.394;9.756;2023-02-15T15:03:58;20.70;;;14.40;;
3207;SDS011;1616;52.394;9.756;2023-02-15T15:06:44;16.27;;;12.20;;
3207;SDS011;1616;52.394;9.756;2023-02-15T15:09:25;20.87;;;13.10;;
3207;SDS011;1616;52.394;9.756;2023-02-15T15:11:54;17.20;;;13.03;;
3207;SDS011;1616;52.394;9.756;2023-02-15T15:14:40;21.27;;;13.57;;
3207;SDS011;1616;52.394;9.756;2023-02-15T15:17:09;20.10;;;12.87;;
3207;SDS011;1616;52.394;9.756;2023-02-15T15:24:54;19.00;;;13.57;;
3207;SDS011;1616;52.394;9.756;2023-02-15T15:49:20;15.20;;;12.57;;
3207;SDS011;1616;52.394;9.756;2023-02-15T15:51:48;19.00;;;12.77;;
3207;SDS011;1616;52.394;9.756;2023-02-15T15:54:19;14.03;;;11.47;;
3207;SDS011;1616;52.394;9.756;2023-02-15T15:56:47;19.43;;;13.30;;
3207;SDS011;1616;52.394;9.756;2023-02-15T15:59:22;21.77;;;13.20;;
3207;SDS011;1616;52.394;9.756;2023-02-15T16:01:50;22.10;;;12.90;;
3207;SDS011;1616;52.394;9.756;2023-02-15T16:04:27;20.07;;;13.30;;
3207;SDS011;1616;52.394;9.756;2023-02-15T16:06:58;21.10;;;14.10;;
3207;SDS011;1616;52.394;9.756;2023-02-15T16:09:41;18.93;;;13.23;;
3207;SDS011;1616;52.394;9.756;2023-02-15T16:12:29;20.53;;;12.93;;
3207;SDS011;1616;52.394;9.756;2023-02-15T16:14:57;19.00;;;13.30;;
3207;SDS011;1616;52.394;9.756;2023-02-15T16:17:26;19.70;;;13.00;;
3207;SDS011;1616;52.394;9.756;2023-02-15T16:20:18;21.43;;;14.00;;
3207;SDS011;1616;52.394;9.756;2023-02-15T16:22:47;21.03;;;14.33;;
3207;SDS011;1616;52.394;9.756;2023-02-15T16:27:44;17.87;;;13.43;;
3207;SDS011;1616;52.394;9.756;2023-02-15T16:33:16;16.53;;;11.97;;
3207;SDS011;1616;52.394;9.756;2023-02-15T16:36:02;21.10;;;14.27;;
3207;SDS011;1616;52.394;9.756;2023-02-15T16:40:56;22.80;;;14.00;;
3207;SDS011;1616;52.394;9.756;2023-02-15T16:43:26;20.90;;;13.80;;
3207;SDS011;1616;52.394;9.756;2023-02-15T16:45:58;22.03;;;13.10;;
3207;SDS011;1616;52.394;9.756;2023-02-15T16:48:32;22.90;;;12.57;;
3207;SDS011;1616;52.394;9.756;2023-02-15T16:51:03;16.87;;;13.20;;
3207;SDS011;1616;52.394;9.756;2023-02-15T16:53:29;31.40;;;13.70;;
3207;SDS011;1616;52.394;9.756;2023-02-15T16:55:56;19.67;;;13.33;;
3207;SDS011;1616;52.394;9.756;2023-02-15T16:58:31;21.93;;;13.83;;
3207;SDS011;1616;52.394;9.756;2023-02-15T17:01:10;18.07;;;13.97;;
3207;SDS011;1616;52.394;9.756;2023-02-15T17:03:39;24.97;;;14.73;;
3207;SDS011;1616;52.394;9.756;2023-02-15T17:06:17;21.37;;;14.63;;
3207;SDS011;1616;52.394;9.756;2023-02-15T17:08:47;21.13;;;14.50;;
3207;SDS011;1616;52.394;9.756;2023-02-15T17:11:20;26.30;;;14.90;;
3207;SDS011;1616;52.394;9.756;2023-02-15T17:16:35;21.47;;;14.63;;
3207;SDS011;1616;52.394;9.756;2023-02-15T17:19:13;25.27;;;13.80;;
3207;SDS011;1616;52.394;9.756;2023-02-15T17:21:54;22.70;;;15.00;;
3207;SDS011;1616;52.394;9.756;2023-02-15T17:26:57;22.20;;;14.23;;
3207;SDS011;1616;52.394;9.756;2023-02-15T17:29:33;28.53;;;15.73;;
3207;SDS011;1616;52.394;9.756;2023-02-15T17:32:04;23.70;;;14.83;;
3207;SDS011;1616;52.394;9.756;2023-02-15T17:37:26;24.43;;;16.33;;
3207;SDS011;1616;52.394;9.756;2023-02-15T17:40:01;23.10;;;14.87;;
3207;SDS011;1616;52.394;9.756;2023-02-15T17:42:39;26.17;;;15.97;;
3207;SDS011;1616;52.394;9.756;2023-02-15T17:45:05;28.90;;;15.67;;
3207;SDS011;1616;52.394;9.756;2023-02-15T17:47:31;29.50;;;17.37;;
3207;SDS011;1616;52.394;9.756;2023-02-15T17:49:56;22.63;;;14.83;;
3207;SDS011;1616;52.394;9.756;2023-02-15T17:52:23;22.73;;;14.20;;
3207;SDS011;1616;52.394;9.756;2023-02-15T17:54:53;29.60;;;17.23;;
3207;SDS011;1616;52.394;9.756;2023-02-15T17:57:37;23.33;;;14.37;;
3207;SDS011;1616;52.394;9.756;2023-02-15T18:00:03;23.90;;;14.57;;
3207;SDS011;1616;52.394;9.756;2023-02-15T18:02:49;23.90;;;13.40;;
3207;SDS011;1616;52.394;9.756;2023-02-15T18:05:33;22.10;;;14.73;;
3207;SDS011;1616;52.394;9.756;2023-02-15T18:08:18;26.37;;;16.47;;
3207;SDS011;1616;52.394;9.756;2023-02-15T18:11:09;22.23;;;14.20;;
3207;SDS011;1616;52.394;9.756;2023-02-15T18:13:54;28.30;;;15.63;;
3207;SDS011;1616;52.394;9.756;2023-02-15T18:16:23;21.73;;;13.90;;
3207;SDS011;1616;52.394;9.756;2023-02-15T18:18:51;20.53;;;13.40;;
3207;SDS011;1616;52.394;9.756;2023-02-15T18:21:17;19.50;;;12.97;;
3207;SDS011;1616;52.394;9.756;2023-02-15T18:23:43;32.23;;;14.40;;
3207;SDS011;1616;52.394;9.756;2023-02-15T18:26:12;22.23;;;13.03;;
3207;SDS011;1616;52.394;9.756;2023-02-15T18:28:44;22.20;;;14.27;;
3207;SDS011;1616;52.394;9.756;2023-02-15T18:31:09;19.60;;;12.27;;
3207;SDS011;1616;52.394;9.756;2023-02-15T18:33:46;18.77;;;12.10;;
3207;SDS011;1616;52.394;9.756;2023-02-15T18:36:28;20.33;;;13.80;;
3207;SDS011;1616;52.394;9.756;2023-02-15T18:38:57;19.97;;;12.80;;
3207;SDS011;1616;52.394;9.756;2023-02-15T18:41:23;19.03;;;12.10;;
3207;SDS011;1616;52.394;9.756;2023-02-15T18:43:50;26.20;;;12.13;;
3207;SDS011;1616;52.394;9.756;2023-02-15T18:46:18;22.53;;;12.87;;
3207;SDS011;1616;52.394;9.756;2023-02-15T18:48:44;25.90;;;14.87;;
3207;SDS011;1616;52.394;9.756;2023-02-15T18:51:22;21.97;;;13.37;;